Time;durP1;ratioP1;P1;durP2;ratioP2;P2;SDS_P1;SDS_P2;PMS_P1;PMS_P2;Temp;Humidity;BMP_temperature;BMP_pressure;BME280_temperature;BME280_humidity;BME280_pressure;Samples;Min_cycle;Max_cycle;Signal;HPM_P1;HPM_P2
2021/08/07 00:00:22;;;;;;;41.58;36.95;;;18.80;99.90;;;;;;4996884;28;20506;-80
2021/08/07 00:02:48;;;;;;;40.50;36.38;;;18.90;99.90;;;;;;5014003;28;20426;-82
2021/08/07 00:05:14;;;;;;;41.45;37.25;;;18.80;99.90;;;;;;5014136;28;20030;-81
2021/08/07 00:07:40;;;;;;;42.92;38.25;;;18.90;99.90;;;;;;5013603;28;20030;-82
2021/08/07 00:10:07;;;;;;;42.95;38.35;;;18.90;99.90;;;;;;5014390;28;20093;-81
2021/08/07 00:12:35;;;;;;;40.67;36.08;;;18.90;99.90;;;;;;5014634;28;20100;-80
2021/08/07 00:15:01;;;;;;;42.35;37.63;;;18.90;99.90;;;;;;5033781;28;20025;-81
2021/08/07 00:17:27;;;;;;;41.80;37.15;;;18.90;99.90;;;;;;5033626;28;20021;-81
2021/08/07 00:19:53;;;;;;;43.72;38.40;;;19.00;99.90;;;;;;5032472;28;20029;-80
2021/08/07 00:22:19;;;;;;;43.30;38.75;;;19.00;99.90;;;;;;5033674;28;20053;-82
2021/08/07 00:24:44;;;;;;;43.63;39.08;;;19.00;99.90;;;;;;5033431;28;20437;-81
2021/08/07 00:27:10;;;;;;;43.53;38.95;;;19.00;99.90;;;;;;5033431;28;20108;-81
2021/08/07 00:29:36;;;;;;;42.75;38.15;;;19.10;99.90;;;;;;5015740;28;20022;-79
2021/08/07 00:32:03;;;;;;;45.92;39.58;;;19.00;99.90;;;;;;5033680;28;20040;-81
2021/08/07 00:34:29;;;;;;;43.22;38.78;;;19.00;99.90;;;;;;5033546;28;20025;-80
2021/08/07 00:36:55;;;;;;;43.53;39.03;;;19.00;99.90;;;;;;5033302;28;20456;-80
2021/08/07 00:39:21;;;;;;;41.45;37.13;;;19.00;99.90;;;;;;5033228;28;20028;-82
2021/08/07 00:41:47;;;;;;;43.55;39.03;;;19.00;99.90;;;;;;5032970;28;20029;-81
2021/08/07 00:44:13;;;;;;;45.20;39.10;;;19.10;99.90;;;;;;5033165;28;20025;-81
2021/08/07 00:46:39;;;;;;;44.30;39.72;;;19.10;99.90;;;;;;5032725;28;20479;-82
2021/08/07 00:49:05;;;;;;;40.60;36.50;;;19.10;99.90;;;;;;5033094;28;20018;-81
2021/08/07 00:51:31;;;;;;;40.08;36.17;;;19.10;99.90;;;;;;5033086;28;20132;-80
2021/08/07 00:53:59;;;;;;;39.58;35.38;;;19.00;99.90;;;;;;5031969;28;20025;-81
2021/08/07 00:56:25;;;;;;;40.55;36.17;;;19.00;99.90;;;;;;5033037;28;20025;-81
2021/08/07 00:58:51;;;;;;;37.53;33.53;;;19.00;99.90;;;;;;5015090;28;20155;-81
2021/08/07 01:01:17;;;;;;;35.10;31.65;;;19.00;99.90;;;;;;5033562;28;20079;-81
2021/08/07 01:03:49;;;;;;;33.08;29.75;;;19.00;99.90;;;;;;5033022;28;20026;-81
2021/08/07 01:06:31;;;;;;;31.17;28.10;;;19.10;99.90;;;;;;5033056;28;20048;-81
2021/08/07 01:09:03;;;;;;;31.00;27.83;;;19.00;99.90;;;;;;5032874;28;20022;-80
2021/08/07 01:11:45;;;;;;;31.08;27.98;;;19.00;99.90;;;;;;5032804;28;20021;-80
2021/08/07 01:14:13;;;;;;;30.38;27.58;;;19.00;99.90;;;;;;5023969;28;20050;-80
2021/08/07 01:16:42;;;;;;;30.75;26.73;;;19.00;99.90;;;;;;5020911;28;20052;-80
2021/08/07 01:19:16;;;;;;;30.75;27.92;;;19.00;99.90;;;;;;5022654;28;20022;-80
2021/08/07 01:21:48;;;;;;;29.55;26.27;;;19.00;99.90;;;;;;5015683;28;20030;-80
2021/08/07 01:24:22;;;;;;;30.15;27.30;;;19.00;99.90;;;;;;5017706;28;20100;-80
2021/08/07 01:27:02;;;;;;;28.75;25.73;;;19.00;99.90;;;;;;5022497;28;20064;-80
2021/08/07 01:29:29;;;;;;;29.00;26.20;;;19.00;99.90;;;;;;5021576;28;20029;-81
2021/08/07 01:31:55;;;;;;;29.67;26.55;;;19.00;99.90;;;;;;5021137;28;20021;-82
2021/08/07 01:34:22;;;;;;;29.27;26.17;;;19.00;99.90;;;;;;5019427;28;20014;-82
2021/08/07 01:36:48;;;;;;;29.85;26.98;;;19.00;99.90;;;;;;5021454;28;20108;-81
2021/08/07 01:39:15;;;;;;;28.43;25.60;;;19.00;99.90;;;;;;5008860;28;20027;-82
2021/08/07 01:41:41;;;;;;;29.77;26.65;;;19.00;99.90;;;;;;5017718;28;20029;-81
2021/08/07 01:44:07;;;;;;;29.33;26.33;;;19.00;99.90;;;;;;5024852;28;20018;-81
2021/08/07 01:46:42;;;;;;;30.13;27.02;;;19.00;99.90;;;;;;5018153;28;20104;-81
2021/08/07 01:49:16;;;;;;;29.67;26.77;;;19.00;99.90;;;;;;5019482;28;20025;-82
2021/08/07 01:51:52;;;;;;;29.13;26.30;;;19.10;99.90;;;;;;5028848;28;20044;-81
2021/08/07 01:54:25;;;;;;;29.85;27.08;;;19.10;99.90;;;;;;5031836;28;20490;-81
2021/08/07 01:56:52;;;;;;;28.70;25.70;;;19.10;99.90;;;;;;5028783;28;20027;-81
2021/08/07 01:59:20;;;;;;;30.40;27.05;;;19.10;99.90;;;;;;5031210;28;20534;-80
2021/08/07 02:01:48;;;;;;;31.02;27.83;;;19.10;99.90;;;;;;5033025;28;20064;-81
2021/08/07 02:04:15;;;;;;;31.67;26.80;;;19.10;99.90;;;;;;5031818;28;20045;-81
2021/08/07 02:06:43;;;;;;;29.35;26.52;;;19.20;99.90;;;;;;5034061;28;20451;-81
2021/08/07 02:09:11;;;;;;;29.85;26.27;;;19.20;99.90;;;;;;5043218;28;20079;-80
2021/08/07 02:11:40;;;;;;;28.67;25.90;;;19.10;99.90;;;;;;5037017;28;20037;-80
2021/08/07 02:14:07;;;;;;;29.05;25.60;;;19.20;99.90;;;;;;5029831;28;20109;-80
2021/08/07 02:16:34;;;;;;;30.65;27.73;;;19.20;99.90;;;;;;5033039;28;20135;-81
2021/08/07 02:19:01;;;;;;;28.40;25.58;;;19.20;99.90;;;;;;5024303;28;20084;-81
2021/08/07 02:21:27;;;;;;;28.85;25.50;;;19.20;99.90;;;;;;5031714;28;20021;-80
2021/08/07 02:23:53;;;;;;;28.40;25.67;;;19.30;99.90;;;;;;5021832;28;20018;-79
2021/08/07 02:26:22;;;;;;;27.88;25.00;;;19.30;99.80;;;;;;5027906;28;20491;-81
2021/08/07 02:28:48;;;;;;;29.70;26.65;;;19.30;99.70;;;;;;5026535;28;20025;-82
2021/08/07 02:31:14;;;;;;;29.42;26.40;;;19.30;99.70;;;;;;5027084;28;20029;-79
2021/08/07 02:33:40;;;;;;;32.67;29.33;;;19.30;99.60;;;;;;5026719;28;20025;-82
2021/08/07 02:36:09;;;;;;;30.70;27.42;;;19.40;99.60;;;;;;5018830;28;20025;-81
2021/08/07 02:38:35;;;;;;;30.98;28.08;;;19.30;99.30;;;;;;5025694;28;20021;-80
2021/08/07 02:41:02;;;;;;;34.72;31.20;;;19.00;99.90;;;;;;5019326;28;20483;-81
2021/08/07 02:43:29;;;;;;;35.78;32.22;;;18.80;99.90;;;;;;5035860;28;20360;-81
2021/08/07 02:45:55;;;;;;;36.88;33.13;;;18.60;99.90;;;;;;5033402;28;20034;-82
2021/08/07 02:48:23;;;;;;;36.22;32.65;;;18.50;99.90;;;;;;5029283;28;20543;-83
2021/08/07 02:50:49;;;;;;;37.63;33.80;;;18.50;99.90;;;;;;5036266;28;20020;-81
2021/08/07 02:53:16;;;;;;;37.05;32.60;;;18.50;99.90;;;;;;5024365;28;20403;-82
2021/08/07 02:55:44;;;;;;;36.88;33.00;;;18.50;99.90;;;;;;5030781;28;20084;-81
2021/08/07 02:58:10;;;;;;;37.85;34.00;;;18.50;99.90;;;;;;5026930;28;20420;-83
2021/08/07 03:00:37;;;;;;;37.70;33.78;;;18.50;99.90;;;;;;5031868;28;20037;-81
2021/08/07 03:03:04;;;;;;;38.55;34.67;;;18.50;99.90;;;;;;5034292;28;20079;-82
2021/08/07 03:05:30;;;;;;;35.78;32.22;;;18.50;99.90;;;;;;5032730;28;20029;-82
2021/08/07 03:07:56;;;;;;;37.80;33.90;;;18.50;99.90;;;;;;5033950;28;20029;-81
2021/08/07 03:10:22;;;;;;;38.83;34.67;;;18.40;99.90;;;;;;5032676;28;20033;-84
2021/08/07 03:12:52;;;;;;;38.78;34.63;;;18.30;99.90;;;;;;5032860;28;20018;-81
2021/08/07 03:15:20;;;;;;;38.17;34.28;;;18.20;99.90;;;;;;5034173;28;20021;-81
2021/08/07 03:17:49;;;;;;;36.28;32.78;;;18.20;99.90;;;;;;5032725;28;20014;-82
2021/08/07 03:20:15;;;;;;;38.45;33.67;;;18.10;99.90;;;;;;5032578;28;20053;-82
2021/08/07 03:22:41;;;;;;;37.97;34.15;;;18.20;99.90;;;;;;5032618;28;20060;-81
2021/08/07 03:25:08;;;;;;;40.60;34.47;;;18.20;99.90;;;;;;5034232;28;20022;-81
2021/08/07 03:27:34;;;;;;;41.33;37.03;;;18.30;99.90;;;;;;5033894;28;20379;-82
2021/08/07 03:30:00;;;;;;;39.55;35.45;;;18.30;99.90;;;;;;5033779;28;20036;-81
2021/08/07 03:32:26;;;;;;;40.58;36.20;;;18.40;99.90;;;;;;5033028;28;20029;-82
2021/08/07 03:34:51;;;;;;;37.28;33.88;;;18.30;99.90;;;;;;5033222;28;20524;-83
2021/08/07 03:37:17;;;;;;;44.70;40.05;;;18.30;99.90;;;;;;5032418;28;20030;-82
2021/08/07 03:39:43;;;;;;;42.08;37.72;;;18.30;99.90;;;;;;5032336;28;20017;-82
2021/08/07 03:42:09;;;;;;;36.92;33.22;;;18.30;99.90;;;;;;5033590;28;20026;-82
2021/08/07 03:44:35;;;;;;;37.67;33.80;;;18.20;99.90;;;;;;5034126;28;20444;-83
2021/08/07 03:47:01;;;;;;;36.17;32.53;;;18.20;99.90;;;;;;5025701;28;20527;-82
2021/08/07 03:49:27;;;;;;;44.85;35.80;;;18.20;99.90;;;;;;5025273;28;20026;-81
2021/08/07 03:51:52;;;;;;;34.95;31.73;;;18.20;99.90;;;;;;5029947;28;20028;-81
2021/08/07 03:54:18;;;;;;;37.47;33.47;;;18.20;99.90;;;;;;5034296;28;20021;-81
2021/08/07 03:56:44;;;;;;;38.15;32.58;;;18.20;99.90;;;;;;5034345;28;20033;-82
2021/08/07 03:59:10;;;;;;;38.63;34.85;;;18.20;99.90;;;;;;5020594;28;20037;-82
2021/08/07 04:01:36;;;;;;;37.13;33.42;;;18.30;99.90;;;;;;5034754;28;20045;-81
2021/08/07 04:04:02;;;;;;;36.50;32.75;;;18.40;99.90;;;;;;5020307;28;20445;-81
2021/08/07 04:06:28;;;;;;;36.55;32.65;;;18.40;99.90;;;;;;5034339;28;20076;-80
2021/08/07 04:08:54;;;;;;;34.63;31.33;;;18.40;99.90;;;;;;5034073;28;20041;-82
2021/08/07 04:11:19;;;;;;;36.55;32.83;;;18.40;99.90;;;;;;5026614;28;20034;-81
2021/08/07 04:13:45;;;;;;;36.75;32.85;;;18.60;99.90;;;;;;5027808;28;20038;-83
2021/08/07 04:16:11;;;;;;;35.10;31.45;;;18.60;99.90;;;;;;5028758;28;20402;-81
2021/08/07 04:18:37;;;;;;;36.35;32.63;;;18.70;99.90;;;;;;5026235;28;20035;-81
2021/08/07 04:21:03;;;;;;;37.35;32.97;;;18.70;99.90;;;;;;5018235;28;20029;-81
2021/08/07 04:23:29;;;;;;;36.40;32.70;;;18.70;99.90;;;;;;5021292;28;20045;-79
2021/08/07 04:25:54;;;;;;;33.92;30.63;;;18.90;99.90;;;;;;5032996;28;20033;-79
2021/08/07 04:28:20;;;;;;;35.90;32.10;;;18.90;99.90;;;;;;5018216;28;20022;-80
2021/08/07 04:30:46;;;;;;;35.50;31.55;;;19.00;99.90;;;;;;5016489;28;20084;-81
2021/08/07 04:33:12;;;;;;;34.20;30.48;;;19.20;99.90;;;;;;5015534;28;20049;-80
2021/08/07 04:35:38;;;;;;;35.63;29.85;;;19.30;99.90;;;;;;5015605;28;20115;-79
2021/08/07 04:38:04;;;;;;;32.60;29.20;;;19.30;99.90;;;;;;5016742;28;20101;-82
2021/08/07 04:40:31;;;;;;;32.10;28.45;;;19.50;99.90;;;;;;5015353;28;20026;-81
2021/08/07 04:42:58;;;;;;;30.52;27.30;;;19.50;99.90;;;;;;5025819;28;20513;-81
2021/08/07 04:45:24;;;;;;;31.40;28.02;;;19.70;99.90;;;;;;5032863;28;20029;-81
2021/08/07 04:48:05;;;;;;;29.08;26.25;;;19.80;99.90;;;;;;5026635;28;20039;-83
2021/08/07 04:50:33;;;;;;;29.88;25.33;;;19.90;99.90;;;;;;5030315;28;20092;-81
2021/08/07 04:52:59;;;;;;;29.20;25.88;;;20.10;99.90;;;;;;5017277;28;20079;-82
2021/08/07 04:55:26;;;;;;;27.58;24.88;;;20.00;99.80;;;;;;5020160;28;20533;-83
2021/08/07 04:57:52;;;;;;;28.35;25.40;;;20.00;99.50;;;;;;5017790;28;20076;-82
2021/08/07 05:00:18;;;;;;;27.17;24.45;;;20.20;99.60;;;;;;5026248;28;20502;-82
2021/08/07 05:02:47;;;;;;;28.80;24.60;;;20.50;99.00;;;;;;5019570;28;20080;-84
2021/08/07 05:05:14;;;;;;;27.05;24.17;;;20.80;98.30;;;;;;5006687;28;20062;-85
2021/08/07 05:07:40;;;;;;;;;;;21.10;97.10;;;;;;5020652;28;20072;-83
2021/08/07 05:10:08;;;;;;;28.83;25.57;;;21.10;97.20;;;;;;5017161;28;19912;-84
2021/08/07 05:12:34;;;;;;;32.90;25.45;;;21.10;96.90;;;;;;5020279;28;20022;-83
2021/08/07 05:15:00;;;;;;;27.38;24.65;;;21.10;96.70;;;;;;5016405;28;20030;-82
2021/08/07 05:17:26;;;;;;;25.73;23.00;;;21.40;96.30;;;;;;5027930;28;20056;-84
2021/08/07 05:19:54;;;;;;;25.13;22.48;;;21.90;94.90;;;;;;5032767;28;20009;-83
2021/08/07 05:22:21;;;;;;;23.25;20.88;;;22.50;94.20;;;;;;5024176;28;20484;-82
2021/08/07 05:24:47;;;;;;;23.27;20.85;;;23.30;91.90;;;;;;5029031;28;20025;-83
2021/08/07 05:27:13;;;;;;;22.33;19.98;;;23.70;90.50;;;;;;5024007;28;20491;-83
2021/08/07 05:29:39;;;;;;;21.45;19.25;;;24.10;87.50;;;;;;5026431;28;20021;-81
2021/08/07 05:32:06;;;;;;;23.02;19.42;;;24.00;87.10;;;;;;5023848;28;20143;-81
2021/08/07 05:34:32;;;;;;;19.93;18.03;;;24.10;86.10;;;;;;5022869;28;20438;-83
2021/08/07 05:36:57;;;;;;;20.92;18.58;;;24.40;84.90;;;;;;5026114;28;20026;-81
2021/08/07 05:39:23;;;;;;;19.38;17.15;;;24.80;83.50;;;;;;5021342;28;20040;-80
2021/08/07 05:41:49;;;;;;;21.25;17.92;;;25.00;80.80;;;;;;5025732;28;20018;-82
2021/08/07 05:44:15;;;;;;;20.90;18.88;;;25.30;81.10;;;;;;5023905;28;20021;-82
2021/08/07 05:46:41;;;;;;;18.92;17.00;;;26.00;78.00;;;;;;5025687;28;20494;-82
2021/08/07 05:49:07;;;;;;;18.63;16.20;;;26.60;76.30;;;;;;5032462;28;20028;-82
2021/08/07 05:51:35;;;;;;;19.35;16.05;;;26.80;72.00;;;;;;5032404;28;20022;-82
2021/08/07 05:54:04;;;;;;;18.42;16.45;;;26.80;70.90;;;;;;5032086;28;20121;-81
2021/08/07 05:56:30;;;;;;;17.10;15.40;;;26.90;71.50;;;;;;5034250;28;20056;-82
2021/08/07 05:58:57;;;;;;;18.33;16.37;;;27.30;70.30;;;;;;5034084;28;20025;-82
2021/08/07 06:01:25;;;;;;;17.30;15.60;;;28.40;68.30;;;;;;5032738;28;20053;-82
2021/08/07 06:03:51;;;;;;;22.73;15.60;;;29.10;63.80;;;;;;5030727;28;20623;-82
2021/08/07 06:06:17;;;;;;;19.42;14.90;;;28.40;64.20;;;;;;5031208;28;20060;-83
2021/08/07 06:08:43;;;;;;;24.73;15.55;;;28.60;65.50;;;;;;5030913;28;20482;-81
2021/08/07 06:11:09;;;;;;;20.42;15.18;;;29.00;62.80;;;;;;5032320;28;20498;-81
2021/08/07 06:13:35;;;;;;;21.63;15.88;;;29.30;61.90;;;;;;5032538;28;20042;-82
2021/08/07 06:16:01;;;;;;;18.52;13.65;;;29.10;61.00;;;;;;5032642;28;20026;-81
2021/08/07 06:18:27;;;;;;;17.05;15.43;;;29.10;62.20;;;;;;5033025;28;20025;-81
2021/08/07 06:20:53;;;;;;;15.85;14.45;;;28.90;61.00;;;;;;5032398;28;20498;-80
2021/08/07 06:23:19;;;;;;;17.05;15.30;;;28.30;62.50;;;;;;5032204;28;20212;-82
2021/08/07 06:25:45;;;;;;;17.65;14.02;;;27.80;64.80;;;;;;5017600;28;20018;-79
2021/08/07 06:28:11;;;;;;;20.35;15.35;;;27.30;66.50;;;;;;5030467;28;20132;-83
2021/08/07 06:30:42;;;;;;;19.95;15.30;;;26.70;68.80;;;;;;5031895;28;20021;-83
2021/08/07 06:33:09;;;;;;;16.23;14.55;;;26.30;70.20;;;;;;5027251;28;20432;-82
2021/08/07 06:35:35;;;;;;;20.40;15.48;;;25.70;71.20;;;;;;5010607;28;20109;-83
2021/08/07 06:38:01;;;;;;;17.65;14.02;;;25.00;74.20;;;;;;5029210;28;20031;-82
2021/08/07 06:40:27;;;;;;;20.33;15.32;;;24.50;76.30;;;;;;5035202;28;20066;-81
2021/08/07 06:42:53;;;;;;;20.23;14.88;;;24.30;77.00;;;;;;5038301;28;20026;-82
2021/08/07 06:45:19;;;;;;;21.88;14.23;;;24.10;77.50;;;;;;5036455;28;20105;-82
2021/08/07 06:47:46;;;;;;;26.55;15.65;;;23.90;78.90;;;;;;5026965;28;20080;-82
2021/08/07 06:50:12;;;;;;;19.40;13.90;;;23.90;80.70;;;;;;5035370;28;20134;-81
2021/08/07 06:52:39;;;;;;;20.58;14.40;;;24.20;79.20;;;;;;5034210;28;20033;-82
2021/08/07 06:55:06;;;;;;;20.77;16.00;;;24.60;78.80;;;;;;5008411;28;20456;-83
2021/08/07 06:57:31;;;;;;;18.08;13.23;;;25.00;77.40;;;;;;5021015;28;20021;-82
2021/08/07 07:00:02;;;;;;;20.88;14.88;;;25.00;76.00;;;;;;5023624;28;20548;-84
2021/08/07 07:02:27;;;;;;;23.27;15.45;;;25.00;76.00;;;;;;5034283;28;20522;-81
2021/08/07 07:04:53;;;;;;;23.52;14.68;;;25.00;76.10;;;;;;5035233;28;20025;-80
2021/08/07 07:07:19;;;;;;;16.52;14.50;;;25.10;76.30;;;;;;5034875;28;20040;-80
2021/08/07 07:09:45;;;;;;;21.35;15.15;;;25.20;76.70;;;;;;5039111;28;20356;-83
2021/08/07 07:12:12;;;;;;;20.83;14.80;;;25.20;76.70;;;;;;5036043;28;20398;-80
2021/08/07 07:14:38;;;;;;;17.42;15.10;;;25.20;77.20;;;;;;5032709;28;20077;-82
2021/08/07 07:17:04;;;;;;;20.95;14.23;;;25.40;77.10;;;;;;5021354;28;20053;-80
2021/08/07 07:19:30;;;;;;;16.90;14.40;;;25.80;75.60;;;;;;5025989;28;20013;-81
2021/08/07 07:21:57;;;;;;;19.25;13.30;;;26.10;73.30;;;;;;5022912;28;20026;-86
2021/08/07 07:24:23;;;;;;;20.20;15.45;;;26.30;73.10;;;;;;5010320;28;20017;-82
2021/08/07 07:26:49;;;;;;;21.65;13.82;;;26.90;72.80;;;;;;5007552;28;20154;-83
2021/08/07 07:29:15;;;;;;;23.67;15.23;;;27.70;68.90;;;;;;5007465;28;20480;-85
2021/08/07 07:31:40;;;;;;;16.48;12.13;;;28.10;67.20;;;;;;5024375;28;20120;-85
2021/08/07 07:34:06;;;;;;;17.08;12.43;;;28.50;65.10;;;;;;5033995;28;20021;-83
2021/08/07 07:36:32;;;;;;;19.35;12.02;;;28.80;63.60;;;;;;5009320;28;20328;-80
2021/08/07 07:38:58;;;;;;;22.63;11.65;;;28.60;63.80;;;;;;5012452;28;20029;-80
2021/08/07 07:41:24;;;;;;;16.45;11.18;;;28.40;63.80;;;;;;5014634;28;20022;-81
2021/08/07 07:43:50;;;;;;;13.40;11.13;;;28.10;64.90;;;;;;5016667;28;20022;-81
2021/08/07 07:46:16;;;;;;;16.90;11.13;;;27.90;65.00;;;;;;5015153;28;20053;-83
2021/08/07 07:48:41;;;;;;;17.48;11.23;;;27.60;66.10;;;;;;4999099;28;20037;-83
2021/08/07 07:51:07;;;;;;;16.50;11.32;;;27.30;67.30;;;;;;4997702;28;20054;-83
2021/08/07 07:53:33;;;;;;;14.80;10.55;;;27.00;67.80;;;;;;5001459;28;20022;-84
2021/08/07 07:55:59;;;;;;;16.13;10.65;;;26.80;69.00;;;;;;5000915;28;20030;-81
2021/08/07 07:58:25;;;;;;;14.05;10.57;;;26.80;69.50;;;;;;4999331;28;20384;-81
2021/08/07 08:00:52;;;;;;;21.02;11.40;;;26.70;69.60;;;;;;5000134;28;20129;-81
2021/08/07 08:03:18;;;;;;;12.60;10.77;;;26.60;70.30;;;;;;5005543;28;20022;-84
2021/08/07 08:05:44;;;;;;;21.42;11.32;;;26.40;70.40;;;;;;5017831;28;20053;-87
2021/08/07 08:08:10;;;;;;;11.65;10.23;;;26.10;72.00;;;;;;5018560;28;20018;-85
2021/08/07 08:10:38;;;;;;;18.70;11.10;;;25.90;72.40;;;;;;5017717;28;20022;-84
2021/08/07 08:13:05;;;;;;;13.55;10.38;;;25.70;73.20;;;;;;5017858;28;20043;-85
2021/08/07 08:15:31;;;;;;;15.90;10.48;;;25.70;73.70;;;;;;5029369;28;20360;-80
2021/08/07 08:17:57;;;;;;;16.60;10.10;;;25.80;73.40;;;;;;5026270;28;20028;-81
2021/08/07 08:20:25;;;;;;;16.10;9.77;;;26.10;73.30;;;;;;5027514;28;20098;-82
2021/08/07 08:22:51;;;;;;;16.40;8.48;;;26.50;72.00;;;;;;5032327;28;20021;-82
2021/08/07 08:25:17;;;;;;;18.30;9.57;;;27.00;70.20;;;;;;5034649;28;20051;-82
2021/08/07 08:27:43;;;;;;;10.93;8.38;;;27.40;68.70;;;;;;5024205;28;20488;-82
2021/08/07 08:30:09;;;;;;;14.77;8.07;;;28.60;66.20;;;;;;5033629;28;20026;-81
2021/08/07 08:32:35;;;;;;;14.25;7.50;;;30.80;61.10;;;;;;5033529;28;20022;-81
2021/08/07 08:35:01;;;;;;;15.20;7.93;;;32.50;56.30;;;;;;5032816;28;20021;-87
2021/08/07 08:37:27;;;;;;;12.90;7.78;;;32.80;53.50;;;;;;5019639;28;20026;-84
2021/08/07 08:39:53;;;;;;;15.35;7.85;;;32.20;53.10;;;;;;5034708;28;20320;-84
2021/08/07 08:42:21;;;;;;;12.98;7.97;;;31.00;54.40;;;;;;5015075;28;20033;-81
2021/08/07 08:44:47;;;;;;;13.25;8.15;;;30.00;57.10;;;;;;5033234;28;20130;-83
2021/08/07 08:47:18;;;;;;;11.68;7.88;;;28.90;59.20;;;;;;5033467;28;20557;-83
2021/08/07 08:49:45;;;;;;;13.73;8.57;;;28.00;62.00;;;;;;5034320;28;20017;-83
2021/08/07 08:52:13;;;;;;;15.60;8.00;;;27.50;64.20;;;;;;5034691;28;20028;-84
2021/08/07 08:54:41;;;;;;;14.57;8.80;;;27.20;65.30;;;;;;5006335;28;20030;-84
2021/08/07 08:57:07;;;;;;;11.75;8.35;;;27.10;66.50;;;;;;5016556;28;20025;-83
2021/08/07 08:59:33;;;;;;;10.10;8.00;;;27.10;66.10;;;;;;5020517;28;20506;-83
2021/08/07 09:02:00;;;;;;;13.23;9.07;;;27.80;65.60;;;;;;5050439;28;20123;-83
2021/08/07 09:04:26;;;;;;;11.15;7.95;;;28.70;64.50;;;;;;5041117;28;20430;-82
2021/08/07 09:06:53;;;;;;;14.10;7.35;;;30.30;60.90;;;;;;5036673;28;20402;-80
2021/08/07 09:09:37;;;;;;;13.45;7.80;;;31.40;57.50;;;;;;5007912;28;20509;-81
2021/08/07 09:12:03;;;;;;;7.85;6.88;;;32.20;55.00;;;;;;5033018;28;20033;-82
2021/08/07 09:14:32;;;;;;;12.93;7.63;;;32.60;53.60;;;;;;5030843;28;20034;-84
2021/08/07 09:16:58;;;;;;;16.17;7.70;;;33.50;51.60;;;;;;5016358;28;20037;-83
2021/08/07 09:19:44;;;;;;;12.27;7.07;;;33.80;49.70;;;;;;5031926;28;20112;-80
2021/08/07 09:22:11;;;;;;;10.93;7.03;;;34.10;50.60;;;;;;5031373;28;20032;-81
2021/08/07 09:24:55;;;;;;;17.48;7.65;;;34.90;48.40;;;;;;5031910;28;20117;-81
2021/08/07 09:27:31;;;;;;;14.65;7.43;;;34.90;48.10;;;;;;5018829;28;20120;-79
2021/08/07 09:29:59;;;;;;;15.93;7.25;;;34.20;48.20;;;;;;5011281;28;20014;-84
2021/08/07 09:32:24;;;;;;;22.00;8.82;;;33.80;49.20;;;;;;5025014;28;20022;-79
2021/08/07 09:35:10;;;;;;;14.57;7.33;;;33.60;49.50;;;;;;5022790;28;20041;-80
2021/08/07 09:37:36;;;;;;;14.27;7.65;;;33.40;50.00;;;;;;5014537;28;20040;-79
2021/08/07 09:40:05;;;;;;;13.30;7.37;;;32.90;49.70;;;;;;5028505;28;20471;-81
2021/08/07 09:42:32;;;;;;;16.60;8.73;;;32.20;50.50;;;;;;5026597;28;20044;-81
2021/08/07 09:45:08;;;;;;;13.88;8.45;;;31.40;52.40;;;;;;5032197;28;20032;-80
2021/08/07 09:47:40;;;;;;;19.20;8.55;;;30.80;54.20;;;;;;5017407;28;20046;-82
2021/08/07 09:50:23;;;;;;;17.92;8.90;;;30.70;55.60;;;;;;5014705;28;20026;-79
2021/08/07 09:52:49;;;;;;;13.25;7.63;;;31.90;54.30;;;;;;5014351;28;20387;-82
2021/08/07 09:55:16;;;;;;;12.90;6.95;;;33.40;50.70;;;;;;5015282;28;20026;-81
2021/08/07 09:57:43;;;;;;;14.68;6.80;;;34.60;48.40;;;;;;5012769;28;20484;-81
2021/08/07 10:00:10;;;;;;;15.45;7.70;;;35.30;46.50;;;;;;5009586;28;20077;-80
2021/08/07 10:02:37;;;;;;;16.65;7.15;;;36.40;45.40;;;;;;5029017;28;20391;-81
2021/08/07 10:05:11;;;;;;;14.70;7.35;;;37.30;43.70;;;;;;5028959;28;20018;-81
2021/08/07 10:07:38;;;;;;;13.90;7.15;;;38.20;42.10;;;;;;5027288;28;20109;-81
2021/08/07 10:10:23;;;;;;;13.88;7.60;;;;;;;;;;5025481;28;20160;-81
2021/08/07 10:12:49;;;;;;;15.77;6.93;;;38.00;41.50;;;;;;5029126;28;20017;-81
2021/08/07 10:15:16;;;;;;;12.35;7.05;;;35.80;45.80;;;;;;5023750;28;20038;-83
2021/08/07 10:17:43;;;;;;;12.73;7.50;;;35.90;45.00;;;;;;5019586;28;20108;-81
2021/08/07 10:20:12;;;;;;;11.85;7.22;;;36.30;45.00;;;;;;5031924;28;20383;-82
2021/08/07 10:22:38;;;;;;;14.68;7.20;;;37.30;44.10;;;;;;5034090;28;20320;-83
2021/08/07 10:25:07;;;;;;;11.98;6.85;;;38.40;42.20;;;;;;5025198;28;20454;-80
2021/08/07 10:27:35;;;;;;;19.70;6.78;;;39.10;41.30;;;;;;5028100;28;20112;-84
2021/08/07 10:30:03;;;;;;;12.57;7.93;;;39.10;40.70;;;;;;5024423;28;20080;-83
2021/08/07 10:32:30;;;;;;;12.98;6.53;;;39.10;41.40;;;;;;5023691;28;20041;-83
2021/08/07 10:34:58;;;;;;;12.75;7.03;;;38.60;40.80;;;;;;5029607;28;20013;-83
2021/08/07 10:37:24;;;;;;;19.55;8.43;;;37.40;41.90;;;;;;5025165;28;20022;-83
2021/08/07 10:39:52;;;;;;;14.20;7.40;;;36.20;43.80;;;;;;5029520;28;20470;-84
2021/08/07 10:42:20;;;;;;;13.95;7.10;;;35.40;45.50;;;;;;5029816;28;20032;-84
2021/08/07 10:44:47;;;;;;;11.52;7.40;;;34.80;46.60;;;;;;5031941;28;20375;-83
2021/08/07 10:47:13;;;;;;;13.32;7.38;;;33.80;47.80;;;;;;5027467;28;20144;-82
2021/08/07 10:49:41;;;;;;;15.48;7.78;;;33.10;49.70;;;;;;5033512;28;20029;-81
2021/08/07 10:52:22;;;;;;;14.43;7.18;;;32.40;51.30;;;;;;5030683;28;20021;-81
2021/08/07 10:54:53;;;;;;;15.23;8.73;;;31.90;52.60;;;;;;5021252;28;20014;-81
2021/08/07 10:57:39;;;;;;;18.55;8.02;;;31.60;54.40;;;;;;5025679;28;20025;-81
2021/08/07 11:00:14;;;;;;;;;;;31.10;55.50;;;;;;5016305;28;20025;-80
2021/08/07 11:02:40;;;;;;;10.45;8.43;;;30.60;55.10;;;;;;5024284;28;19909;-80
2021/08/07 11:05:07;;;;;;;15.13;7.63;;;30.10;57.90;;;;;;5015960;28;20129;-83
2021/08/07 11:07:34;;;;;;;9.82;8.82;;;29.70;58.50;;;;;;5023828;28;20034;-81
2021/08/07 11:10:15;;;;;;;15.45;10.02;;;29.30;59.80;;;;;;5021205;28;20022;-83
2021/08/07 11:12:44;;;;;;;16.75;8.25;;;28.80;61.50;;;;;;5017257;28;20037;-82
2021/08/07 11:15:13;;;;;;;16.38;9.52;;;28.40;62.00;;;;;;5035372;28;20788;-81
2021/08/07 11:17:44;;;;;;;11.80;8.23;;;28.20;64.70;;;;;;5037786;28;20018;-81
2021/08/07 11:20:15;;;;;;;18.00;9.05;;;28.10;65.30;;;;;;5017196;28;20025;-80
2021/08/07 11:22:41;;;;;;;14.80;8.80;;;27.90;65.90;;;;;;5034301;28;20041;-82
2021/08/07 11:25:17;;;;;;;17.95;9.40;;;27.70;66.10;;;;;;5049624;28;20021;-82
2021/08/07 11:28:01;;;;;;;18.95;8.85;;;27.60;66.40;;;;;;5039469;28;20033;-82
2021/08/07 11:30:34;;;;;;;22.45;9.88;;;27.50;66.70;;;;;;5034659;28;20045;-83
2021/08/07 11:33:00;;;;;;;16.02;9.43;;;27.30;68.10;;;;;;5033765;28;20057;-83
2021/08/07 11:35:35;;;;;;;13.68;9.05;;;27.20;66.80;;;;;;5034781;28;20368;-81
2021/08/07 11:38:09;;;;;;;19.85;9.27;;;26.90;67.60;;;;;;5038104;28;20045;-83
2021/08/07 11:40:39;;;;;;;13.93;9.23;;;26.80;69.10;;;;;;5016888;28;20027;-82
2021/08/07 11:43:11;;;;;;;14.60;8.90;;;26.80;70.30;;;;;;5017198;28;20027;-81
2021/08/07 11:45:38;;;;;;;14.70;9.48;;;26.70;69.70;;;;;;5023509;28;20033;-80
2021/08/07 11:48:04;;;;;;;16.17;10.32;;;26.70;70.90;;;;;;5034825;28;20022;-81
2021/08/07 11:50:31;;;;;;;11.90;10.45;;;26.60;72.00;;;;;;5034409;28;20080;-80
2021/08/07 11:52:57;;;;;;;17.98;10.15;;;26.40;74.30;;;;;;5034396;28;20021;-80
2021/08/07 11:55:23;;;;;;;14.60;10.25;;;;;;;;;;5034240;28;20021;-80
2021/08/07 11:58:06;;;;;;;17.48;11.35;;;26.30;75.10;;;;;;5004286;28;20400;-79
2021/08/07 12:00:34;;;;;;;16.52;10.73;;;26.00;77.10;;;;;;5030828;28;20414;-79
2021/08/07 12:03:03;;;;;;;13.40;11.10;;;25.90;76.00;;;;;;5034307;28;20014;-83
2021/08/07 12:05:34;;;;;;;16.50;10.55;;;26.00;76.30;;;;;;5016290;28;20028;-79
2021/08/07 12:08:00;;;;;;;16.27;9.68;;;26.20;77.20;;;;;;5034235;28;20060;-80
2021/08/07 12:10:26;;;;;;;17.52;10.70;;;26.40;73.70;;;;;;5034074;28;20025;-80
2021/08/07 12:12:53;;;;;;;13.48;10.63;;;26.50;76.80;;;;;;5014605;28;20329;-80
2021/08/07 12:15:19;;;;;;;12.45;10.05;;;26.60;76.40;;;;;;5019069;28;20014;-79
2021/08/07 12:17:47;;;;;;;19.88;11.75;;;26.50;77.20;;;;;;5021669;28;20022;-83
2021/08/07 12:20:13;;;;;;;16.23;11.40;;;26.50;76.80;;;;;;5018973;28;20464;-81
2021/08/07 12:22:59;;;;;;;27.17;13.05;;;26.50;78.80;;;;;;5017624;28;20033;-82
2021/08/07 12:25:25;;;;;;;49.97;14.65;;;26.50;77.80;;;;;;5010448;28;20459;-84
2021/08/07 12:28:15;;;;;;;32.85;13.45;;;26.50;76.60;;;;;;5018324;28;20048;-84
2021/08/07 12:31:06;;;;;;;42.33;12.65;;;26.40;77.10;;;;;;5014056;28;20117;-82
2021/08/07 12:33:38;;;;;;;34.28;12.63;;;26.30;76.60;;;;;;5016522;28;20060;-83